sensor_id;sensor_type;location;lat;lon;timestamp;P1;durP1;ratioP1;P2;durP2;ratioP2
61460;SDS011;47325;50.506;4.472;2024-03-06T00:04:28;9.90;;;6.40;;
61460;SDS011;47325;50.506;4.472;2024-03-06T00:10:21;10.00;;;6.20;;
61460;SDS011;47325;50.506;4.472;2024-03-06T00:16:04;9.40;;;6.00;;
61460;SDS011;47325;50.506;4.472;2024-03-06T00:21:49;9.60;;;5.90;;
61460;SDS011;47325;50.506;4.472;2024-03-06T00:27:33;8.60;;;5.80;;
61460;SDS011;47325;50.506;4.472;2024-03-06T00:33:16;10.00;;;5.90;;
61460;SDS011;47325;50.506;4.472;2024-03-06T00:39:02;10.50;;;6.00;;
61460;SDS011;47325;50.506;4.472;2024-03-06T00:44:46;10.10;;;6.10;;
61460;SDS011;47325;50.506;4.472;2024-03-06T00:50:30;9.90;;;5.80;;
61460;SDS011;47325;50.506;4.472;2024-03-06T00:56:13;10.00;;;6.10;;
61460;SDS011;47325;50.506;4.472;2024-03-06T01:01:58;9.40;;;5.70;;
61460;SDS011;47325;50.506;4.472;2024-03-06T01:07:42;9.80;;;5.70;;
61460;SDS011;47325;50.506;4.472;2024-03-06T01:13:26;9.50;;;5.60;;
61460;SDS011;47325;50.506;4.472;2024-03-06T01:19:10;8.20;;;5.00;;
61460;SDS011;47325;50.506;4.472;2024-03-06T01:24:54;8.30;;;5.30;;
61460;SDS011;47325;50.506;4.472;2024-03-06T01:30:39;9.10;;;5.00;;
61460;SDS011;47325;50.506;4.472;2024-03-06T01:36:23;7.80;;;4.80;;
61460;SDS011;47325;50.506;4.472;2024-03-06T01:42:07;7.80;;;4.60;;
61460;SDS011;47325;50.506;4.472;2024-03-06T01:47:51;7.30;;;4.60;;
61460;SDS011;47325;50.506;4.472;2024-03-06T01:53:35;6.50;;;4.50;;
61460;SDS011;47325;50.506;4.472;2024-03-06T01:59:20;8.00;;;4.80;;
61460;SDS011;47325;50.506;4.472;2024-03-06T02:05:18;7.00;;;4.20;;
61460;SDS011;47325;50.506;4.472;2024-03-06T02:11:02;7.30;;;4.20;;
61460;SDS011;47325;50.506;4.472;2024-03-06T02:16:47;7.50;;;4.70;;
61460;SDS011;47325;50.506;4.472;2024-03-06T02:22:31;7.10;;;4.20;;
61460;SDS011;47325;50.506;4.472;2024-03-06T02:28:15;7.50;;;4.40;;
61460;SDS011;47325;50.506;4.472;2024-03-06T02:33:59;8.10;;;4.60;;
61460;SDS011;47325;50.506;4.472;2024-03-06T02:39:43;7.00;;;4.40;;
61460;SDS011;47325;50.506;4.472;2024-03-06T02:45:26;7.10;;;3.80;;
61460;SDS011;47325;50.506;4.472;2024-03-06T02:51:12;6.30;;;4.20;;
61460;SDS011;47325;50.506;4.472;2024-03-06T02:57:00;6.30;;;3.90;;
61460;SDS011;47325;50.506;4.472;2024-03-06T03:02:46;6.30;;;4.10;;
61460;SDS011;47325;50.506;4.472;2024-03-06T03:08:30;6.50;;;3.90;;
61460;SDS011;47325;50.506;4.472;2024-03-06T03:14:14;7.90;;;4.30;;
61460;SDS011;47325;50.506;4.472;2024-03-06T03:19:58;7.10;;;3.80;;
61460;SDS011;47325;50.506;4.472;2024-03-06T03:25:42;6.50;;;3.80;;
61460;SDS011;47325;50.506;4.472;2024-03-06T03:31:26;6.00;;;3.80;;
61460;SDS011;47325;50.506;4.472;2024-03-06T03:37:12;6.00;;;3.80;;
61460;SDS011;47325;50.506;4.472;2024-03-06T03:42:56;6.40;;;3.80;;
61460;SDS011;47325;50.506;4.472;2024-03-06T03:48:39;5.90;;;4.00;;
61460;SDS011;47325;50.506;4.472;2024-03-06T03:54:23;6.10;;;3.80;;
61460;SDS011;47325;50.506;4.472;2024-03-06T04:00:09;5.40;;;3.70;;
61460;SDS011;47325;50.506;4.472;2024-03-06T04:05:53;5.70;;;3.60;;
61460;SDS011;47325;50.506;4.472;2024-03-06T04:11:37;6.00;;;3.60;;
61460;SDS011;47325;50.506;4.472;2024-03-06T04:17:22;5.10;;;3.40;;
61460;SDS011;47325;50.506;4.472;2024-03-06T04:23:06;5.20;;;3.40;;
61460;SDS011;47325;50.506;4.472;2024-03-06T04:28:50;5.50;;;3.60;;
61460;SDS011;47325;50.506;4.472;2024-03-06T04:34:34;4.10;;;3.20;;
61460;SDS011;47325;50.506;4.472;2024-03-06T04:40:19;5.20;;;3.30;;
61460;SDS011;47325;50.506;4.472;2024-03-06T04:46:03;5.40;;;3.60;;
61460;SDS011;47325;50.506;4.472;2024-03-06T04:51:47;6.20;;;3.50;;
61460;SDS011;47325;50.506;4.472;2024-03-06T04:57:34;6.00;;;3.20;;
61460;SDS011;47325;50.506;4.472;2024-03-06T05:03:17;5.10;;;3.10;;
61460;SDS011;47325;50.506;4.472;2024-03-06T05:09:28;4.30;;;2.90;;
61460;SDS011;47325;50.506;4.472;2024-03-06T05:15:38;4.90;;;3.20;;
61460;SDS011;47325;50.506;4.472;2024-03-06T05:21:49;5.20;;;3.30;;
61460;SDS011;47325;50.506;4.472;2024-03-06T05:28:00;4.00;;;3.00;;
61460;SDS011;47325;50.506;4.472;2024-03-06T05:34:11;4.70;;;3.20;;
61460;SDS011;47325;50.506;4.472;2024-03-06T05:40:21;4.40;;;3.00;;
61460;SDS011;47325;50.506;4.472;2024-03-06T05:46:32;5.40;;;3.40;;
61460;SDS011;47325;50.506;4.472;2024-03-06T05:52:43;4.10;;;2.90;;
61460;SDS011;47325;50.506;4.472;2024-03-06T05:58:54;4.30;;;3.00;;
61460;SDS011;47325;50.506;4.472;2024-03-06T06:04:37;5.10;;;3.30;;
61460;SDS011;47325;50.506;4.472;2024-03-06T06:10:42;5.40;;;2.90;;
61460;SDS011;47325;50.506;4.472;2024-03-06T06:16:34;5.10;;;2.90;;
61460;SDS011;47325;50.506;4.472;2024-03-06T06:22:16;5.70;;;3.10;;
61460;SDS011;47325;50.506;4.472;2024-03-06T06:27:59;4.50;;;2.80;;
61460;SDS011;47325;50.506;4.472;2024-03-06T06:33:43;4.80;;;2.90;;
61460;SDS011;47325;50.506;4.472;2024-03-06T06:39:26;5.60;;;3.30;;
61460;SDS011;47325;50.506;4.472;2024-03-06T06:45:10;5.70;;;3.30;;
61460;SDS011;47325;50.506;4.472;2024-03-06T06:50:54;5.50;;;3.40;;
61460;SDS011;47325;50.506;4.472;2024-03-06T06:56:38;6.40;;;3.70;;
61460;SDS011;47325;50.506;4.472;2024-03-06T07:02:22;5.90;;;3.30;;
61460;SDS011;47325;50.506;4.472;2024-03-06T07:08:07;5.30;;;3.50;;
61460;SDS011;47325;50.506;4.472;2024-03-06T07:13:52;5.70;;;3.60;;
61460;SDS011;47325;50.506;4.472;2024-03-06T07:19:36;6.60;;;3.50;;
61460;SDS011;47325;50.506;4.472;2024-03-06T07:25:19;7.00;;;3.70;;
61460;SDS011;47325;50.506;4.472;2024-03-06T07:31:04;5.50;;;3.50;;
61460;SDS011;47325;50.506;4.472;2024-03-06T07:36:48;5.60;;;3.50;;
61460;SDS011;47325;50.506;4.472;2024-03-06T07:42:32;5.00;;;3.30;;
61460;SDS011;47325;50.506;4.472;2024-03-06T07:48:16;4.60;;;3.20;;
61460;SDS011;47325;50.506;4.472;2024-03-06T07:54:00;4.70;;;3.30;;
61460;SDS011;47325;50.506;4.472;2024-03-06T07:59:44;6.90;;;3.40;;
61460;SDS011;47325;50.506;4.472;2024-03-06T08:05:29;4.70;;;3.50;;
61460;SDS011;47325;50.506;4.472;2024-03-06T08:11:14;6.70;;;3.50;;
61460;SDS011;47325;50.506;4.472;2024-03-06T08:16:59;5.20;;;3.20;;
61460;SDS011;47325;50.506;4.472;2024-03-06T08:22:43;5.50;;;3.50;;
61460;SDS011;47325;50.506;4.472;2024-03-06T08:28:27;5.00;;;3.30;;
61460;SDS011;47325;50.506;4.472;2024-03-06T08:34:11;4.80;;;3.50;;
61460;SDS011;47325;50.506;4.472;2024-03-06T08:39:56;5.50;;;3.50;;
61460;SDS011;47325;50.506;4.472;2024-03-06T08:45:40;6.40;;;3.40;;
61460;SDS011;47325;50.506;4.472;2024-03-06T08:51:24;5.90;;;3.70;;
61460;SDS011;47325;50.506;4.472;2024-03-06T08:57:08;6.90;;;4.10;;
61460;SDS011;47325;50.506;4.472;2024-03-06T09:02:54;6.70;;;3.80;;
61460;SDS011;47325;50.506;4.472;2024-03-06T09:08:41;8.70;;;4.70;;
61460;SDS011;47325;50.506;4.472;2024-03-06T09:14:25;5.80;;;4.00;;
61460;SDS011;47325;50.506;4.472;2024-03-06T09:20:10;8.00;;;3.90;;
61460;SDS011;47325;50.506;4.472;2024-03-06T09:25:58;7.00;;;4.00;;
61460;SDS011;47325;50.506;4.472;2024-03-06T09:31:43;7.00;;;3.80;;
61460;SDS011;47325;50.506;4.472;2024-03-06T09:37:30;5.20;;;3.60;;
61460;SDS011;47325;50.506;4.472;2024-03-06T09:43:15;6.00;;;3.70;;
61460;SDS011;47325;50.506;4.472;2024-03-06T09:49:00;7.90;;;3.60;;
61460;SDS011;47325;50.506;4.472;2024-03-06T09:54:44;9.20;;;4.20;;
61460;SDS011;47325;50.506;4.472;2024-03-06T10:00:29;10.20;;;4.60;;
61460;SDS011;47325;50.506;4.472;2024-03-06T10:06:13;9.50;;;4.00;;
61460;SDS011;47325;50.506;4.472;2024-03-06T10:11:58;8.30;;;3.70;;
61460;SDS011;47325;50.506;4.472;2024-03-06T10:17:49;8.00;;;3.60;;
61460;SDS011;47325;50.506;4.472;2024-03-06T10:23:35;7.20;;;3.60;;
61460;SDS011;47325;50.506;4.472;2024-03-06T10:29:20;9.60;;;3.50;;
61460;SDS011;47325;50.506;4.472;2024-03-06T10:35:05;7.30;;;3.40;;
61460;SDS011;47325;50.506;4.472;2024-03-06T10:40:50;7.30;;;3.40;;
61460;SDS011;47325;50.506;4.472;2024-03-06T10:46:34;6.00;;;3.50;;
61460;SDS011;47325;50.506;4.472;2024-03-06T10:52:19;5.90;;;3.50;;
61460;SDS011;47325;50.506;4.472;2024-03-06T10:58:03;8.80;;;3.60;;
61460;SDS011;47325;50.506;4.472;2024-03-06T11:03:49;6.50;;;3.70;;
61460;SDS011;47325;50.506;4.472;2024-03-06T11:09:36;6.60;;;3.40;;
61460;SDS011;47325;50.506;4.472;2024-03-06T11:15:21;4.60;;;3.30;;
61460;SDS011;47325;50.506;4.472;2024-03-06T11:27:00;6.70;;;3.50;;
61460;SDS011;47325;50.506;4.472;2024-03-06T11:38:41;5.00;;;2.70;;
61460;SDS011;47325;50.506;4.472;2024-03-06T11:44:26;4.80;;;2.70;;
61460;SDS011;47325;50.506;4.472;2024-03-06T11:50:10;6.20;;;2.90;;
61460;SDS011;47325;50.506;4.472;2024-03-06T11:55:54;4.50;;;2.30;;
61460;SDS011;47325;50.506;4.472;2024-03-06T12:01:38;3.80;;;2.20;;
61460;SDS011;47325;50.506;4.472;2024-03-06T12:07:22;3.80;;;2.10;;
61460;SDS011;47325;50.506;4.472;2024-03-06T12:13:06;3.80;;;1.90;;
61460;SDS011;47325;50.506;4.472;2024-03-06T12:18:52;3.00;;;1.60;;
61460;SDS011;47325;50.506;4.472;2024-03-06T12:24:37;4.70;;;1.90;;
61460;SDS011;47325;50.506;4.472;2024-03-06T12:30:21;5.10;;;1.80;;
61460;SDS011;47325;50.506;4.472;2024-03-06T12:36:06;3.60;;;1.70;;
61460;SDS011;47325;50.506;4.472;2024-03-06T12:41:51;2.80;;;1.50;;
61460;SDS011;47325;50.506;4.472;2024-03-06T12:47:35;3.70;;;1.60;;
61460;SDS011;47325;50.506;4.472;2024-03-06T12:53:19;3.30;;;1.50;;
61460;SDS011;47325;50.506;4.472;2024-03-06T12:59:04;2.60;;;1.50;;
61460;SDS011;47325;50.506;4.472;2024-03-06T13:04:47;2.90;;;1.60;;
61460;SDS011;47325;50.506;4.472;2024-03-06T13:10:31;3.40;;;1.60;;
61460;SDS011;47325;50.506;4.472;2024-03-06T13:16:16;4.40;;;1.40;;
61460;SDS011;47325;50.506;4.472;2024-03-06T13:21:59;4.10;;;1.80;;
61460;SDS011;47325;50.506;4.472;2024-03-06T13:27:49;3.10;;;1.50;;
61460;SDS011;47325;50.506;4.472;2024-03-06T13:33:33;4.00;;;1.30;;
61460;SDS011;47325;50.506;4.472;2024-03-06T13:39:17;2.50;;;1.30;;
61460;SDS011;47325;50.506;4.472;2024-03-06T13:45:01;2.70;;;1.30;;
61460;SDS011;47325;50.506;4.472;2024-03-06T13:50:44;1.90;;;1.20;;
61460;SDS011;47325;50.506;4.472;2024-03-06T13:56:29;2.70;;;1.30;;
61460;SDS011;47325;50.506;4.472;2024-03-06T14:02:14;2.80;;;1.30;;
61460;SDS011;47325;50.506;4.472;2024-03-06T14:07:59;2.60;;;1.20;;
61460;SDS011;47325;50.506;4.472;2024-03-06T14:13:43;3.00;;;1.30;;
61460;SDS011;47325;50.506;4.472;2024-03-06T14:19:27;2.80;;;1.20;;
61460;SDS011;47325;50.506;4.472;2024-03-06T14:25:11;1.90;;;1.10;;
61460;SDS011;47325;50.506;4.472;2024-03-06T14:30:56;2.50;;;1.10;;
61460;SDS011;47325;50.506;4.472;2024-03-06T14:36:42;2.20;;;1.20;;
61460;SDS011;47325;50.506;4.472;2024-03-06T14:42:26;2.80;;;1.20;;
61460;SDS011;47325;50.506;4.472;2024-03-06T14:48:10;2.10;;;1.10;;
61460;SDS011;47325;50.506;4.472;2024-03-06T14:53:54;6.40;;;1.40;;
61460;SDS011;47325;50.506;4.472;2024-03-06T14:59:38;4.90;;;1.40;;
61460;SDS011;47325;50.506;4.472;2024-03-06T15:05:22;3.80;;;1.30;;
61460;SDS011;47325;50.506;4.472;2024-03-06T15:11:06;5.30;;;1.50;;
61460;SDS011;47325;50.506;4.472;2024-03-06T15:16:50;17.10;;;2.70;;
61460;SDS011;47325;50.506;4.472;2024-03-06T15:22:34;17.40;;;7.20;;
61460;SDS011;47325;50.506;4.472;2024-03-06T15:28:18;13.10;;;6.00;;
61460;SDS011;47325;50.506;4.472;2024-03-06T15:34:01;9.30;;;3.30;;
61460;SDS011;47325;50.506;4.472;2024-03-06T15:39:46;6.30;;;2.30;;
61460;SDS011;47325;50.506;4.472;2024-03-06T15:45:29;6.20;;;2.20;;
61460;SDS011;47325;50.506;4.472;2024-03-06T15:51:13;6.60;;;2.10;;
61460;SDS011;47325;50.506;4.472;2024-03-06T15:56:57;4.70;;;1.70;;
61460;SDS011;47325;50.506;4.472;2024-03-06T16:02:42;8.70;;;1.80;;
61460;SDS011;47325;50.506;4.472;2024-03-06T16:08:26;4.70;;;1.50;;
61460;SDS011;47325;50.506;4.472;2024-03-06T16:14:10;5.70;;;1.50;;
61460;SDS011;47325;50.506;4.472;2024-03-06T16:19:55;3.20;;;1.30;;
61460;SDS011;47325;50.506;4.472;2024-03-06T16:25:38;4.20;;;1.50;;
61460;SDS011;47325;50.506;4.472;2024-03-06T16:31:22;2.90;;;1.20;;
61460;SDS011;47325;50.506;4.472;2024-03-06T16:37:06;4.50;;;1.20;;
61460;SDS011;47325;50.506;4.472;2024-03-06T16:42:50;5.70;;;1.40;;
61460;SDS011;47325;50.506;4.472;2024-03-06T16:48:33;2.70;;;1.40;;
61460;SDS011;47325;50.506;4.472;2024-03-06T16:54:18;4.00;;;1.60;;
61460;SDS011;47325;50.506;4.472;2024-03-06T17:00:03;4.30;;;1.30;;
61460;SDS011;47325;50.506;4.472;2024-03-06T17:05:50;2.60;;;1.10;;
61460;SDS011;47325;50.506;4.472;2024-03-06T17:11:35;2.80;;;1.40;;
61460;SDS011;47325;50.506;4.472;2024-03-06T17:17:20;2.90;;;1.50;;
61460;SDS011;47325;50.506;4.472;2024-03-06T17:23:04;5.60;;;1.40;;
61460;SDS011;47325;50.506;4.472;2024-03-06T17:28:48;2.90;;;1.30;;
61460;SDS011;47325;50.506;4.472;2024-03-06T17:34:35;4.10;;;1.20;;
61460;SDS011;47325;50.506;4.472;2024-03-06T17:40:19;2.70;;;1.30;;
61460;SDS011;47325;50.506;4.472;2024-03-06T17:46:03;4.20;;;1.40;;
61460;SDS011;47325;50.506;4.472;2024-03-06T17:51:46;3.10;;;1.60;;
61460;SDS011;47325;50.506;4.472;2024-03-06T17:57:30;3.90;;;1.60;;
61460;SDS011;47325;50.506;4.472;2024-03-06T18:03:14;4.30;;;1.70;;
61460;SDS011;47325;50.506;4.472;2024-03-06T18:08:58;3.70;;;1.40;;
61460;SDS011;47325;50.506;4.472;2024-03-06T18:14:41;2.50;;;1.50;;
61460;SDS011;47325;50.506;4.472;2024-03-06T18:20:26;2.70;;;1.70;;
61460;SDS011;47325;50.506;4.472;2024-03-06T18:26:10;3.00;;;1.60;;
61460;SDS011;47325;50.506;4.472;2024-03-06T18:31:54;4.40;;;1.60;;
61460;SDS011;47325;50.506;4.472;2024-03-06T18:37:38;3.60;;;1.70;;
61460;SDS011;47325;50.506;4.472;2024-03-06T18:43:22;3.30;;;1.70;;
61460;SDS011;47325;50.506;4.472;2024-03-06T18:49:06;3.50;;;2.00;;
61460;SDS011;47325;50.506;4.472;2024-03-06T18:54:50;4.90;;;2.00;;
61460;SDS011;47325;50.506;4.472;2024-03-06T19:00:34;3.40;;;1.60;;
61460;SDS011;47325;50.506;4.472;2024-03-06T19:06:18;3.30;;;1.80;;
61460;SDS011;47325;50.506;4.472;2024-03-06T19:12:02;3.70;;;2.00;;
61460;SDS011;47325;50.506;4.472;2024-03-06T19:17:46;3.00;;;1.70;;
61460;SDS011;47325;50.506;4.472;2024-03-06T19:23:30;2.80;;;1.70;;
61460;SDS011;47325;50.506;4.472;2024-03-06T19:29:14;3.20;;;1.90;;
61460;SDS011;47325;50.506;4.472;2024-03-06T19:35:03;5.00;;;2.00;;
61460;SDS011;47325;50.506;4.472;2024-03-06T19:40:47;5.10;;;2.00;;
61460;SDS011;47325;50.506;4.472;2024-03-06T19:46:31;2.50;;;1.60;;
61460;SDS011;47325;50.506;4.472;2024-03-06T19:52:16;3.40;;;1.80;;
61460;SDS011;47325;50.506;4.472;2024-03-06T19:58:00;2.50;;;1.80;;
61460;SDS011;47325;50.506;4.472;2024-03-06T20:03:45;3.60;;;1.90;;
61460;SDS011;47325;50.506;4.472;2024-03-06T20:09:30;3.30;;;1.80;;
61460;SDS011;47325;50.506;4.472;2024-03-06T20:15:14;3.20;;;2.00;;
61460;SDS011;47325;50.506;4.472;2024-03-06T20:20:58;2.50;;;1.80;;
61460;SDS011;47325;50.506;4.472;2024-03-06T20:26:42;4.00;;;2.00;;
61460;SDS011;47325;50.506;4.472;2024-03-06T20:32:26;2.60;;;1.80;;
61460;SDS011;47325;50.506;4.472;2024-03-06T20:38:10;4.20;;;2.00;;
61460;SDS011;47325;50.506;4.472;2024-03-06T20:44:05;2.00;;;1.60;;
61460;SDS011;47325;50.506;4.472;2024-03-06T20:49:51;4.00;;;1.80;;
61460;SDS011;47325;50.506;4.472;2024-03-06T20:55:40;2.70;;;1.90;;
61460;SDS011;47325;50.506;4.472;2024-03-06T21:01:24;4.50;;;2.50;;
61460;SDS011;47325;50.506;4.472;2024-03-06T21:07:08;2.80;;;2.10;;
61460;SDS011;47325;50.506;4.472;2024-03-06T21:12:51;3.20;;;1.80;;
61460;SDS011;47325;50.506;4.472;2024-03-06T21:18:36;3.90;;;2.00;;
61460;SDS011;47325;50.506;4.472;2024-03-06T21:24:20;3.00;;;2.10;;
61460;SDS011;47325;50.506;4.472;2024-03-06T21:30:04;3.70;;;2.10;;
61460;SDS011;47325;50.506;4.472;2024-03-06T21:35:48;3.40;;;2.00;;
61460;SDS011;47325;50.506;4.472;2024-03-06T21:41:32;3.10;;;2.20;;
61460;SDS011;47325;50.506;4.472;2024-03-06T21:47:16;3.50;;;2.20;;
61460;SDS011;47325;50.506;4.472;2024-03-06T21:53:00;3.70;;;2.10;;
61460;SDS011;47325;50.506;4.472;2024-03-06T21:58:44;3.50;;;2.20;;
61460;SDS011;47325;50.506;4.472;2024-03-06T22:04:28;3.10;;;2.40;;
61460;SDS011;47325;50.506;4.472;2024-03-06T22:10:13;3.50;;;2.40;;
61460;SDS011;47325;50.506;4.472;2024-03-06T22:15:57;4.10;;;2.40;;
61460;SDS011;47325;50.506;4.472;2024-03-06T22:21:41;3.70;;;2.60;;
61460;SDS011;47325;50.506;4.472;2024-03-06T22:27:28;3.70;;;2.60;;
61460;SDS011;47325;50.506;4.472;2024-03-06T22:33:14;4.00;;;2.80;;
61460;SDS011;47325;50.506;4.472;2024-03-06T22:38:59;5.70;;;3.00;;
61460;SDS011;47325;50.506;4.472;2024-03-06T22:44:44;3.80;;;2.70;;
61460;SDS011;47325;50.506;4.472;2024-03-06T22:50:28;5.00;;;2.70;;
61460;SDS011;47325;50.506;4.472;2024-03-06T22:56:13;4.50;;;2.60;;
61460;SDS011;47325;50.506;4.472;2024-03-06T23:01:57;4.00;;;2.90;;
61460;SDS011;47325;50.506;4.472;2024-03-06T23:07:41;4.30;;;2.90;;
61460;SDS011;47325;50.506;4.472;2024-03-06T23:13:26;5.30;;;3.00;;
61460;SDS011;47325;50.506;4.472;2024-03-06T23:19:10;5.60;;;3.10;;
61460;SDS011;47325;50.506;4.472;2024-03-06T23:24:54;7.20;;;3.20;;
61460;SDS011;47325;50.506;4.472;2024-03-06T23:30:37;4.80;;;3.30;;
61460;SDS011;47325;50.506;4.472;2024-03-06T23:36:21;4.90;;;3.40;;
61460;SDS011;47325;50.506;4.472;2024-03-06T23:42:05;4.70;;;3.50;;
61460;SDS011;47325;50.506;4.472;2024-03-06T23:47:50;4.80;;;3.40;;
61460;SDS011;47325;50.506;4.472;2024-03-06T23:53:34;4.80;;;3.40;;
61460;SDS011;47325;50.506;4.472;2024-03-06T23:59:18;5.40;;;3.60;;
